sensor_id;sensor_type;location;lat;lon;timestamp;temperature;humidity
18753;DHT22;9505;50.882;5.350;2022-12-28T00:00:01;7.40;99.90
18753;DHT22;9505;50.882;5.350;2022-12-28T00:02:27;7.30;99.90
18753;DHT22;9505;50.882;5.350;2022-12-28T00:04:52;7.30;99.90
18753;DHT22;9505;50.882;5.350;2022-12-28T00:07:18;7.20;99.90
18753;DHT22;9505;50.882;5.350;2022-12-28T00:09:43;7.30;99.90
18753;DHT22;9505;50.882;5.350;2022-12-28T00:12:09;7.40;99.90
18753;DHT22;9505;50.882;5.350;2022-12-28T00:14:34;7.30;99.90
18753;DHT22;9505;50.882;5.350;2022-12-28T00:17:00;7.40;99.90
18753;DHT22;9505;50.882;5.350;2022-12-28T00:19:26;7.40;99.90
18753;DHT22;9505;50.882;5.350;2022-12-28T00:21:52;7.40;99.90
18753;DHT22;9505;50.882;5.350;2022-12-28T00:24:20;7.40;99.90
18753;DHT22;9505;50.882;5.350;2022-12-28T00:26:47;7.50;99.90
18753;DHT22;9505;50.882;5.350;2022-12-28T00:29:12;7.50;99.90
18753;DHT22;9505;50.882;5.350;2022-12-28T00:31:38;7.50;99.90
18753;DHT22;9505;50.882;5.350;2022-12-28T00:34:04;7.50;99.90
18753;DHT22;9505;50.882;5.350;2022-12-28T00:36:30;7.50;99.90
18753;DHT22;9505;50.882;5.350;2022-12-28T00:38:56;7.60;99.90
18753;DHT22;9505;50.882;5.350;2022-12-28T00:41:22;7.60;99.90
18753;DHT22;9505;50.882;5.350;2022-12-28T00:43:48;7.60;99.90
18753;DHT22;9505;50.882;5.350;2022-12-28T00:46:13;7.60;99.90
18753;DHT22;9505;50.882;5.350;2022-12-28T00:48:39;7.60;99.90
18753;DHT22;9505;50.882;5.350;2022-12-28T00:51:07;7.60;99.90
18753;DHT22;9505;50.882;5.350;2022-12-28T00:53:33;7.70;99.90
18753;DHT22;9505;50.882;5.350;2022-12-28T00:56:09;7.60;99.90
18753;DHT22;9505;50.882;5.350;2022-12-28T00:58:37;7.70;99.90
18753;DHT22;9505;50.882;5.350;2022-12-28T01:01:04;7.70;99.90
18753;DHT22;9505;50.882;5.350;2022-12-28T01:03:30;7.70;99.90
18753;DHT22;9505;50.882;5.350;2022-12-28T01:05:55;7.70;99.90
18753;DHT22;9505;50.882;5.350;2022-12-28T01:08:21;7.70;99.90
18753;DHT22;9505;50.882;5.350;2022-12-28T01:10:47;7.70;99.90
18753;DHT22;9505;50.882;5.350;2022-12-28T01:13:13;7.70;99.90
18753;DHT22;9505;50.882;5.350;2022-12-28T01:15:38;7.70;99.90
18753;DHT22;9505;50.882;5.350;2022-12-28T01:18:04;7.60;99.90
18753;DHT22;9505;50.882;5.350;2022-12-28T01:20:30;7.60;99.90
18753;DHT22;9505;50.882;5.350;2022-12-28T01:22:55;7.70;99.90
18753;DHT22;9505;50.882;5.350;2022-12-28T01:25:21;7.60;99.90
18753;DHT22;9505;50.882;5.350;2022-12-28T01:27:46;7.60;99.90
18753;DHT22;9505;50.882;5.350;2022-12-28T01:30:13;7.60;99.90
18753;DHT22;9505;50.882;5.350;2022-12-28T01:32:39;7.70;99.90
18753;DHT22;9505;50.882;5.350;2022-12-28T01:35:05;7.70;99.90
18753;DHT22;9505;50.882;5.350;2022-12-28T01:37:30;7.70;99.90
18753;DHT22;9505;50.882;5.350;2022-12-28T01:39:56;7.70;99.90
18753;DHT22;9505;50.882;5.350;2022-12-28T01:42:21;7.70;99.90
18753;DHT22;9505;50.882;5.350;2022-12-28T01:44:49;7.70;99.90
18753;DHT22;9505;50.882;5.350;2022-12-28T01:47:21;7.80;99.90
18753;DHT22;9505;50.882;5.350;2022-12-28T01:49:55;7.80;99.90
18753;DHT22;9505;50.882;5.350;2022-12-28T01:52:33;7.80;99.90
18753;DHT22;9505;50.882;5.350;2022-12-28T01:55:02;7.80;99.90
18753;DHT22;9505;50.882;5.350;2022-12-28T01:57:31;7.80;99.90
18753;DHT22;9505;50.882;5.350;2022-12-28T02:00:10;7.80;99.90
18753;DHT22;9505;50.882;5.350;2022-12-28T02:02:37;7.80;99.90
18753;DHT22;9505;50.882;5.350;2022-12-28T02:05:03;7.80;99.90
18753;DHT22;9505;50.882;5.350;2022-12-28T02:10:09;7.90;99.90
18753;DHT22;9505;50.882;5.350;2022-12-28T02:12:35;7.80;99.90
18753;DHT22;9505;50.882;5.350;2022-12-28T02:15:02;7.90;99.90
18753;DHT22;9505;50.882;5.350;2022-12-28T02:17:28;7.90;99.90
18753;DHT22;9505;50.882;5.350;2022-12-28T02:19:54;8.00;99.90
18753;DHT22;9505;50.882;5.350;2022-12-28T02:30:07;8.00;99.90
18753;DHT22;9505;50.882;5.350;2022-12-28T02:35:16;8.10;99.90
18753;DHT22;9505;50.882;5.350;2022-12-28T02:37:47;8.10;99.90
18753;DHT22;9505;50.882;5.350;2022-12-28T02:40:15;8.10;99.90
18753;DHT22;9505;50.882;5.350;2022-12-28T02:42:42;8.10;99.90
18753;DHT22;9505;50.882;5.350;2022-12-28T02:48:14;8.20;99.90
18753;DHT22;9505;50.882;5.350;2022-12-28T02:56:50;8.30;99.90
18753;DHT22;9505;50.882;5.350;2022-12-28T02:59:37;8.30;99.90
18753;DHT22;9505;50.882;5.350;2022-12-28T03:02:33;8.40;99.90
18753;DHT22;9505;50.882;5.350;2022-12-28T03:08:29;8.50;99.90
18753;DHT22;9505;50.882;5.350;2022-12-28T03:11:19;8.50;99.90
18753;DHT22;9505;50.882;5.350;2022-12-28T03:14:01;8.40;99.90
18753;DHT22;9505;50.882;5.350;2022-12-28T03:16:38;8.40;99.90
18753;DHT22;9505;50.882;5.350;2022-12-28T03:19:31;8.40;99.90
18753;DHT22;9505;50.882;5.350;2022-12-28T03:22:18;8.50;99.90
18753;DHT22;9505;50.882;5.350;2022-12-28T03:25:07;8.50;99.90
18753;DHT22;9505;50.882;5.350;2022-12-28T03:27:53;8.60;99.90
18753;DHT22;9505;50.882;5.350;2022-12-28T03:30:40;8.50;99.90
18753;DHT22;9505;50.882;5.350;2022-12-28T03:33:25;8.50;99.90
18753;DHT22;9505;50.882;5.350;2022-12-28T03:36:09;8.60;99.90
18753;DHT22;9505;50.882;5.350;2022-12-28T03:42:15;8.70;99.90
18753;DHT22;9505;50.882;5.350;2022-12-28T03:45:03;8.70;99.90
18753;DHT22;9505;50.882;5.350;2022-12-28T03:47:31;8.70;99.90
18753;DHT22;9505;50.882;5.350;2022-12-28T03:49:58;8.80;99.90
18753;DHT22;9505;50.882;5.350;2022-12-28T03:52:24;8.70;99.90
18753;DHT22;9505;50.882;5.350;2022-12-28T03:54:50;8.80;99.90
18753;DHT22;9505;50.882;5.350;2022-12-28T03:57:16;8.70;99.90
18753;DHT22;9505;50.882;5.350;2022-12-28T03:59:43;8.80;99.90
18753;DHT22;9505;50.882;5.350;2022-12-28T04:02:09;8.80;99.90
18753;DHT22;9505;50.882;5.350;2022-12-28T04:04:35;8.80;99.90
18753;DHT22;9505;50.882;5.350;2022-12-28T04:07:00;8.90;99.90
18753;DHT22;9505;50.882;5.350;2022-12-28T04:09:26;8.90;99.90
18753;DHT22;9505;50.882;5.350;2022-12-28T04:11:52;8.90;99.90
18753;DHT22;9505;50.882;5.350;2022-12-28T04:14:18;8.90;99.90
18753;DHT22;9505;50.882;5.350;2022-12-28T04:16:43;8.90;99.90
18753;DHT22;9505;50.882;5.350;2022-12-28T04:19:09;8.90;99.90
18753;DHT22;9505;50.882;5.350;2022-12-28T04:21:35;8.80;99.90
18753;DHT22;9505;50.882;5.350;2022-12-28T04:24:00;8.80;99.90
18753;DHT22;9505;50.882;5.350;2022-12-28T04:26:26;8.80;99.90
18753;DHT22;9505;50.882;5.350;2022-12-28T04:28:51;8.80;99.90
18753;DHT22;9505;50.882;5.350;2022-12-28T04:31:17;8.80;99.90
18753;DHT22;9505;50.882;5.350;2022-12-28T04:33:42;8.80;99.90
18753;DHT22;9505;50.882;5.350;2022-12-28T04:36:12;8.80;99.90
18753;DHT22;9505;50.882;5.350;2022-12-28T04:38:39;8.80;99.90
18753;DHT22;9505;50.882;5.350;2022-12-28T04:41:06;8.80;99.90
18753;DHT22;9505;50.882;5.350;2022-12-28T04:43:32;8.90;99.90
18753;DHT22;9505;50.882;5.350;2022-12-28T04:46:03;8.90;99.90
18753;DHT22;9505;50.882;5.350;2022-12-28T04:48:30;8.90;99.90
18753;DHT22;9505;50.882;5.350;2022-12-28T04:50:56;8.80;99.90
18753;DHT22;9505;50.882;5.350;2022-12-28T04:53:22;8.90;99.90
18753;DHT22;9505;50.882;5.350;2022-12-28T04:55:48;8.90;99.90
18753;DHT22;9505;50.882;5.350;2022-12-28T04:58:14;8.90;99.90
18753;DHT22;9505;50.882;5.350;2022-12-28T05:00:40;8.90;99.90
18753;DHT22;9505;50.882;5.350;2022-12-28T05:03:05;8.90;99.90
18753;DHT22;9505;50.882;5.350;2022-12-28T05:05:31;8.90;99.90
18753;DHT22;9505;50.882;5.350;2022-12-28T05:08:00;8.90;99.90
18753;DHT22;9505;50.882;5.350;2022-12-28T05:10:27;8.90;99.90
18753;DHT22;9505;50.882;5.350;2022-12-28T05:12:54;8.90;99.90
18753;DHT22;9505;50.882;5.350;2022-12-28T05:15:20;8.90;99.90
18753;DHT22;9505;50.882;5.350;2022-12-28T05:17:46;8.90;99.90
18753;DHT22;9505;50.882;5.350;2022-12-28T05:20:11;8.90;99.90
18753;DHT22;9505;50.882;5.350;2022-12-28T05:22:37;8.90;99.90
18753;DHT22;9505;50.882;5.350;2022-12-28T05:25:03;8.90;99.90
18753;DHT22;9505;50.882;5.350;2022-12-28T05:27:28;8.90;99.90
18753;DHT22;9505;50.882;5.350;2022-12-28T05:29:54;8.90;99.90
18753;DHT22;9505;50.882;5.350;2022-12-28T05:32:19;8.90;99.90
18753;DHT22;9505;50.882;5.350;2022-12-28T05:34:45;8.90;99.90
18753;DHT22;9505;50.882;5.350;2022-12-28T05:37:11;8.90;99.90
18753;DHT22;9505;50.882;5.350;2022-12-28T05:39:36;8.90;99.90
18753;DHT22;9505;50.882;5.350;2022-12-28T05:42:03;8.90;99.90
18753;DHT22;9505;50.882;5.350;2022-12-28T05:44:29;8.90;99.90
18753;DHT22;9505;50.882;5.350;2022-12-28T05:46:54;8.90;99.90
18753;DHT22;9505;50.882;5.350;2022-12-28T05:49:20;8.90;99.90
18753;DHT22;9505;50.882;5.350;2022-12-28T05:51:48;8.90;99.90
18753;DHT22;9505;50.882;5.350;2022-12-28T05:54:17;8.90;99.90
18753;DHT22;9505;50.882;5.350;2022-12-28T05:56:44;8.90;99.90
18753;DHT22;9505;50.882;5.350;2022-12-28T05:59:10;8.90;99.90
18753;DHT22;9505;50.882;5.350;2022-12-28T06:01:39;9.00;99.90
18753;DHT22;9505;50.882;5.350;2022-12-28T06:04:07;8.90;99.90
18753;DHT22;9505;50.882;5.350;2022-12-28T06:06:33;9.00;99.90
18753;DHT22;9505;50.882;5.350;2022-12-28T06:09:00;9.00;99.90
18753;DHT22;9505;50.882;5.350;2022-12-28T06:11:27;9.00;99.90
18753;DHT22;9505;50.882;5.350;2022-12-28T06:13:53;9.00;99.90
18753;DHT22;9505;50.882;5.350;2022-12-28T06:16:21;8.90;99.90
18753;DHT22;9505;50.882;5.350;2022-12-28T06:18:47;9.00;99.90
18753;DHT22;9505;50.882;5.350;2022-12-28T06:21:22;8.90;99.90
18753;DHT22;9505;50.882;5.350;2022-12-28T06:23:48;9.00;99.90
18753;DHT22;9505;50.882;5.350;2022-12-28T06:26:17;9.00;99.90
18753;DHT22;9505;50.882;5.350;2022-12-28T06:28:43;8.90;99.90
18753;DHT22;9505;50.882;5.350;2022-12-28T06:31:17;8.90;99.90
18753;DHT22;9505;50.882;5.350;2022-12-28T06:33:44;8.90;99.90
18753;DHT22;9505;50.882;5.350;2022-12-28T06:36:21;8.90;99.90
18753;DHT22;9505;50.882;5.350;2022-12-28T06:38:48;8.90;99.90
18753;DHT22;9505;50.882;5.350;2022-12-28T06:41:15;8.90;99.90
18753;DHT22;9505;50.882;5.350;2022-12-28T06:43:42;8.90;99.90
18753;DHT22;9505;50.882;5.350;2022-12-28T06:46:09;8.90;99.90
18753;DHT22;9505;50.882;5.350;2022-12-28T06:48:36;8.90;99.90
18753;DHT22;9505;50.882;5.350;2022-12-28T06:51:06;8.90;99.90
18753;DHT22;9505;50.882;5.350;2022-12-28T06:53:34;8.90;99.90
18753;DHT22;9505;50.882;5.350;2022-12-28T06:56:02;8.90;99.90
18753;DHT22;9505;50.882;5.350;2022-12-28T06:58:29;8.90;99.90
18753;DHT22;9505;50.882;5.350;2022-12-28T07:00:55;9.00;99.90
18753;DHT22;9505;50.882;5.350;2022-12-28T07:03:22;8.90;99.90
18753;DHT22;9505;50.882;5.350;2022-12-28T07:05:48;9.00;99.90
18753;DHT22;9505;50.882;5.350;2022-12-28T07:08:13;8.90;99.90
18753;DHT22;9505;50.882;5.350;2022-12-28T07:10:39;8.90;99.90
18753;DHT22;9505;50.882;5.350;2022-12-28T07:13:06;8.90;99.90
18753;DHT22;9505;50.882;5.350;2022-12-28T07:15:33;8.90;99.90
18753;DHT22;9505;50.882;5.350;2022-12-28T07:17:59;8.80;99.90
18753;DHT22;9505;50.882;5.350;2022-12-28T07:20:24;8.80;99.90
18753;DHT22;9505;50.882;5.350;2022-12-28T07:22:50;8.80;99.90
18753;DHT22;9505;50.882;5.350;2022-12-28T07:25:15;8.80;99.90
18753;DHT22;9505;50.882;5.350;2022-12-28T07:27:41;8.80;99.90
18753;DHT22;9505;50.882;5.350;2022-12-28T07:30:07;8.80;99.90
18753;DHT22;9505;50.882;5.350;2022-12-28T07:32:36;8.80;99.90
18753;DHT22;9505;50.882;5.350;2022-12-28T07:35:02;8.80;99.90
18753;DHT22;9505;50.882;5.350;2022-12-28T07:37:28;8.80;99.90
18753;DHT22;9505;50.882;5.350;2022-12-28T07:39:53;8.90;99.90
18753;DHT22;9505;50.882;5.350;2022-12-28T07:42:19;8.90;99.90
18753;DHT22;9505;50.882;5.350;2022-12-28T07:44:44;8.90;99.90
18753;DHT22;9505;50.882;5.350;2022-12-28T07:47:12;8.90;99.90
18753;DHT22;9505;50.882;5.350;2022-12-28T07:49:38;8.90;99.90
18753;DHT22;9505;50.882;5.350;2022-12-28T07:52:03;8.90;99.90
18753;DHT22;9505;50.882;5.350;2022-12-28T07:54:29;8.90;99.90
18753;DHT22;9505;50.882;5.350;2022-12-28T07:56:54;8.90;99.90
18753;DHT22;9505;50.882;5.350;2022-12-28T07:59:20;9.00;99.90
18753;DHT22;9505;50.882;5.350;2022-12-28T08:01:48;9.00;99.90
18753;DHT22;9505;50.882;5.350;2022-12-28T08:04:15;9.00;99.90
18753;DHT22;9505;50.882;5.350;2022-12-28T08:06:42;9.00;99.90
18753;DHT22;9505;50.882;5.350;2022-12-28T08:09:11;9.10;99.90
18753;DHT22;9505;50.882;5.350;2022-12-28T08:11:39;9.10;99.90
18753;DHT22;9505;50.882;5.350;2022-12-28T08:14:06;9.00;99.90
18753;DHT22;9505;50.882;5.350;2022-12-28T08:16:34;9.10;99.90
18753;DHT22;9505;50.882;5.350;2022-12-28T08:19:01;9.10;99.90
18753;DHT22;9505;50.882;5.350;2022-12-28T08:24:00;9.10;99.90
18753;DHT22;9505;50.882;5.350;2022-12-28T08:26:31;9.10;99.90
18753;DHT22;9505;50.882;5.350;2022-12-28T08:29:00;9.10;99.90
18753;DHT22;9505;50.882;5.350;2022-12-28T08:31:28;9.10;99.90
18753;DHT22;9505;50.882;5.350;2022-12-28T08:33:56;9.10;99.90
18753;DHT22;9505;50.882;5.350;2022-12-28T08:36:22;9.10;99.90
18753;DHT22;9505;50.882;5.350;2022-12-28T08:38:47;9.10;99.90
18753;DHT22;9505;50.882;5.350;2022-12-28T08:41:16;9.00;99.90
18753;DHT22;9505;50.882;5.350;2022-12-28T08:43:43;9.00;99.90
18753;DHT22;9505;50.882;5.350;2022-12-28T08:46:19;9.10;99.90
18753;DHT22;9505;50.882;5.350;2022-12-28T08:48:48;9.10;99.90
18753;DHT22;9505;50.882;5.350;2022-12-28T08:51:19;9.30;99.90
18753;DHT22;9505;50.882;5.350;2022-12-28T08:53:45;9.30;99.90
18753;DHT22;9505;50.882;5.350;2022-12-28T08:56:23;9.30;99.90
18753;DHT22;9505;50.882;5.350;2022-12-28T08:58:49;9.30;99.90
18753;DHT22;9505;50.882;5.350;2022-12-28T09:01:18;9.30;99.90
18753;DHT22;9505;50.882;5.350;2022-12-28T09:03:46;9.30;99.90
18753;DHT22;9505;50.882;5.350;2022-12-28T09:06:14;9.30;99.90
18753;DHT22;9505;50.882;5.350;2022-12-28T09:08:41;9.30;99.90
18753;DHT22;9505;50.882;5.350;2022-12-28T09:11:09;9.50;99.90
18753;DHT22;9505;50.882;5.350;2022-12-28T09:13:35;9.60;99.90
18753;DHT22;9505;50.882;5.350;2022-12-28T09:16:04;9.70;99.90
18753;DHT22;9505;50.882;5.350;2022-12-28T09:18:30;9.60;99.90
18753;DHT22;9505;50.882;5.350;2022-12-28T09:20:56;9.60;99.90
18753;DHT22;9505;50.882;5.350;2022-12-28T09:23:22;9.60;99.90
18753;DHT22;9505;50.882;5.350;2022-12-28T09:25:47;9.60;99.90
18753;DHT22;9505;50.882;5.350;2022-12-28T09:28:13;9.60;99.90
18753;DHT22;9505;50.882;5.350;2022-12-28T09:30:39;9.60;99.90
18753;DHT22;9505;50.882;5.350;2022-12-28T09:33:05;9.70;99.90
18753;DHT22;9505;50.882;5.350;2022-12-28T09:35:49;9.60;99.90
18753;DHT22;9505;50.882;5.350;2022-12-28T09:38:14;9.70;99.90
18753;DHT22;9505;50.882;5.350;2022-12-28T09:40:40;9.80;99.90
18753;DHT22;9505;50.882;5.350;2022-12-28T09:43:09;9.70;99.90
18753;DHT22;9505;50.882;5.350;2022-12-28T09:45:35;9.70;99.90
18753;DHT22;9505;50.882;5.350;2022-12-28T09:48:12;9.80;99.90
18753;DHT22;9505;50.882;5.350;2022-12-28T09:50:39;9.70;99.90
18753;DHT22;9505;50.882;5.350;2022-12-28T09:55:56;9.80;99.90
18753;DHT22;9505;50.882;5.350;2022-12-28T09:58:22;10.00;99.90
18753;DHT22;9505;50.882;5.350;2022-12-28T10:00:54;10.00;99.90
18753;DHT22;9505;50.882;5.350;2022-12-28T10:03:40;10.00;99.90
18753;DHT22;9505;50.882;5.350;2022-12-28T10:06:12;10.00;99.90
18753;DHT22;9505;50.882;5.350;2022-12-28T10:08:41;10.00;99.90
18753;DHT22;9505;50.882;5.350;2022-12-28T10:11:23;10.10;99.90
18753;DHT22;9505;50.882;5.350;2022-12-28T10:13:57;10.20;99.90
18753;DHT22;9505;50.882;5.350;2022-12-28T10:16:25;10.20;99.90
18753;DHT22;9505;50.882;5.350;2022-12-28T10:18:52;10.30;99.90
18753;DHT22;9505;50.882;5.350;2022-12-28T10:21:20;10.20;99.90
18753;DHT22;9505;50.882;5.350;2022-12-28T10:23:49;10.20;99.90
18753;DHT22;9505;50.882;5.350;2022-12-28T10:26:18;10.20;99.90
18753;DHT22;9505;50.882;5.350;2022-12-28T10:28:53;10.20;99.90
18753;DHT22;9505;50.882;5.350;2022-12-28T10:31:36;10.30;99.90
18753;DHT22;9505;50.882;5.350;2022-12-28T10:34:22;10.20;99.90
18753;DHT22;9505;50.882;5.350;2022-12-28T10:36:50;10.40;99.90
18753;DHT22;9505;50.882;5.350;2022-12-28T10:39:23;10.40;99.90
18753;DHT22;9505;50.882;5.350;2022-12-28T10:41:50;10.50;99.90
18753;DHT22;9505;50.882;5.350;2022-12-28T10:44:24;10.60;99.90
18753;DHT22;9505;50.882;5.350;2022-12-28T10:47:02;10.50;99.90
18753;DHT22;9505;50.882;5.350;2022-12-28T10:49:34;10.40;99.90
18753;DHT22;9505;50.882;5.350;2022-12-28T10:54:38;10.50;99.90
18753;DHT22;9505;50.882;5.350;2022-12-28T10:57:04;10.50;99.90
18753;DHT22;9505;50.882;5.350;2022-12-28T10:59:30;10.50;99.90
18753;DHT22;9505;50.882;5.350;2022-12-28T11:02:23;10.50;99.90
18753;DHT22;9505;50.882;5.350;2022-12-28T11:04:58;10.40;99.90
18753;DHT22;9505;50.882;5.350;2022-12-28T11:07:35;10.50;99.90
18753;DHT22;9505;50.882;5.350;2022-12-28T11:12:54;10.60;99.90
18753;DHT22;9505;50.882;5.350;2022-12-28T11:15:22;10.60;99.90
18753;DHT22;9505;50.882;5.350;2022-12-28T11:17:56;10.80;99.90
18753;DHT22;9505;50.882;5.350;2022-12-28T11:22:55;10.80;99.90
18753;DHT22;9505;50.882;5.350;2022-12-28T11:25:28;10.70;99.90
18753;DHT22;9505;50.882;5.350;2022-12-28T11:27:54;10.60;99.90
18753;DHT22;9505;50.882;5.350;2022-12-28T11:30:20;10.50;99.90
18753;DHT22;9505;50.882;5.350;2022-12-28T11:32:55;10.60;99.90
18753;DHT22;9505;50.882;5.350;2022-12-28T11:35:33;10.60;99.90
18753;DHT22;9505;50.882;5.350;2022-12-28T11:38:02;10.50;99.90
18753;DHT22;9505;50.882;5.350;2022-12-28T11:43:36;10.50;99.90
18753;DHT22;9505;50.882;5.350;2022-12-28T11:51:30;10.40;99.90
18753;DHT22;9505;50.882;5.350;2022-12-28T11:54:02;10.50;99.90
18753;DHT22;9505;50.882;5.350;2022-12-28T11:59:27;10.50;99.90
18753;DHT22;9505;50.882;5.350;2022-12-28T12:04:44;10.50;99.90
18753;DHT22;9505;50.882;5.350;2022-12-28T12:07:24;10.60;99.90
18753;DHT22;9505;50.882;5.350;2022-12-28T12:10:13;10.70;99.90
18753;DHT22;9505;50.882;5.350;2022-12-28T12:12:48;10.80;99.90
18753;DHT22;9505;50.882;5.350;2022-12-28T12:15:18;10.80;99.90
18753;DHT22;9505;50.882;5.350;2022-12-28T12:17:58;10.70;99.90
18753;DHT22;9505;50.882;5.350;2022-12-28T12:23:08;10.60;99.90
18753;DHT22;9505;50.882;5.350;2022-12-28T12:25:45;10.60;99.90
18753;DHT22;9505;50.882;5.350;2022-12-28T12:28:39;10.70;99.90
18753;DHT22;9505;50.882;5.350;2022-12-28T12:31:14;10.60;99.90
18753;DHT22;9505;50.882;5.350;2022-12-28T12:33:45;10.70;99.90
18753;DHT22;9505;50.882;5.350;2022-12-28T12:39:27;10.60;99.90
18753;DHT22;9505;50.882;5.350;2022-12-28T12:44:52;10.60;99.90
18753;DHT22;9505;50.882;5.350;2022-12-28T12:47:46;10.70;99.90
18753;DHT22;9505;50.882;5.350;2022-12-28T12:53:13;10.60;99.90
18753;DHT22;9505;50.882;5.350;2022-12-28T12:59:11;10.60;99.90
18753;DHT22;9505;50.882;5.350;2022-12-28T13:01:21;10.70;99.90
18753;DHT22;9505;50.882;5.350;2022-12-28T13:03:49;10.70;99.90
18753;DHT22;9505;50.882;5.350;2022-12-28T13:06:19;10.80;99.90
18753;DHT22;9505;50.882;5.350;2022-12-28T13:11:12;10.90;99.90
18753;DHT22;9505;50.882;5.350;2022-12-28T13:13:41;11.00;99.90
18753;DHT22;9505;50.882;5.350;2022-12-28T13:16:09;11.10;99.90
18753;DHT22;9505;50.882;5.350;2022-12-28T13:18:36;11.00;99.90
18753;DHT22;9505;50.882;5.350;2022-12-28T13:21:03;11.00;99.90
18753;DHT22;9505;50.882;5.350;2022-12-28T13:23:31;11.00;99.90
18753;DHT22;9505;50.882;5.350;2022-12-28T13:25:59;10.90;99.90
18753;DHT22;9505;50.882;5.350;2022-12-28T13:28:31;10.90;99.90
18753;DHT22;9505;50.882;5.350;2022-12-28T13:31:14;10.90;99.90
18753;DHT22;9505;50.882;5.350;2022-12-28T13:33:40;10.70;99.90
18753;DHT22;9505;50.882;5.350;2022-12-28T13:36:10;10.70;99.90
18753;DHT22;9505;50.882;5.350;2022-12-28T13:38:37;10.80;99.90
18753;DHT22;9505;50.882;5.350;2022-12-28T13:41:03;10.80;99.90
18753;DHT22;9505;50.882;5.350;2022-12-28T13:46:07;10.70;99.90
18753;DHT22;9505;50.882;5.350;2022-12-28T13:48:36;10.60;99.90
18753;DHT22;9505;50.882;5.350;2022-12-28T13:51:08;10.70;99.90
18753;DHT22;9505;50.882;5.350;2022-12-28T13:53:35;10.60;99.90
18753;DHT22;9505;50.882;5.350;2022-12-28T13:56:01;10.70;99.90
18753;DHT22;9505;50.882;5.350;2022-12-28T13:58:34;10.70;99.90
18753;DHT22;9505;50.882;5.350;2022-12-28T14:01:05;10.70;99.90
18753;DHT22;9505;50.882;5.350;2022-12-28T14:03:32;10.70;99.90
18753;DHT22;9505;50.882;5.350;2022-12-28T14:06:01;10.70;99.90
18753;DHT22;9505;50.882;5.350;2022-12-28T14:08:32;10.70;99.90
18753;DHT22;9505;50.882;5.350;2022-12-28T14:10:59;10.70;99.90
18753;DHT22;9505;50.882;5.350;2022-12-28T14:13:25;10.70;99.90
18753;DHT22;9505;50.882;5.350;2022-12-28T14:15:51;10.70;99.90
18753;DHT22;9505;50.882;5.350;2022-12-28T14:18:18;10.80;99.90
18753;DHT22;9505;50.882;5.350;2022-12-28T14:20:50;10.80;99.90
18753;DHT22;9505;50.882;5.350;2022-12-28T14:23:30;11.00;99.90
18753;DHT22;9505;50.882;5.350;2022-12-28T14:26:01;11.00;99.90
18753;DHT22;9505;50.882;5.350;2022-12-28T14:31:02;11.10;99.90
18753;DHT22;9505;50.882;5.350;2022-12-28T14:33:40;11.00;99.90
18753;DHT22;9505;50.882;5.350;2022-12-28T14:36:26;11.10;99.90
18753;DHT22;9505;50.882;5.350;2022-12-28T14:38:53;11.10;99.90
18753;DHT22;9505;50.882;5.350;2022-12-28T14:41:24;11.00;99.90
18753;DHT22;9505;50.882;5.350;2022-12-28T14:43:52;11.00;99.90
18753;DHT22;9505;50.882;5.350;2022-12-28T14:46:29;11.00;99.90
18753;DHT22;9505;50.882;5.350;2022-12-28T14:48:56;10.90;99.90
18753;DHT22;9505;50.882;5.350;2022-12-28T14:51:31;10.80;99.90
18753;DHT22;9505;50.882;5.350;2022-12-28T14:54:27;10.90;99.90
18753;DHT22;9505;50.882;5.350;2022-12-28T14:57:02;10.80;99.90
18753;DHT22;9505;50.882;5.350;2022-12-28T14:59:35;10.80;99.90
18753;DHT22;9505;50.882;5.350;2022-12-28T15:02:02;10.90;99.90
18753;DHT22;9505;50.882;5.350;2022-12-28T15:04:40;10.80;99.90
18753;DHT22;9505;50.882;5.350;2022-12-28T15:07:08;10.80;99.90
18753;DHT22;9505;50.882;5.350;2022-12-28T15:09:34;10.80;99.90
18753;DHT22;9505;50.882;5.350;2022-12-28T15:14:36;10.70;99.90
18753;DHT22;9505;50.882;5.350;2022-12-28T15:17:02;10.80;99.90
18753;DHT22;9505;50.882;5.350;2022-12-28T15:19:28;10.70;99.90
18753;DHT22;9505;50.882;5.350;2022-12-28T15:21:53;10.70;99.90
18753;DHT22;9505;50.882;5.350;2022-12-28T15:24:19;10.70;99.90
18753;DHT22;9505;50.882;5.350;2022-12-28T15:26:44;10.70;99.90
18753;DHT22;9505;50.882;5.350;2022-12-28T15:29:10;10.70;99.90
18753;DHT22;9505;50.882;5.350;2022-12-28T15:31:35;10.70;99.90
18753;DHT22;9505;50.882;5.350;2022-12-28T15:34:01;10.60;99.90
18753;DHT22;9505;50.882;5.350;2022-12-28T15:36:27;10.60;99.90
18753;DHT22;9505;50.882;5.350;2022-12-28T15:38:54;10.60;99.90
18753;DHT22;9505;50.882;5.350;2022-12-28T15:41:20;10.50;99.90
18753;DHT22;9505;50.882;5.350;2022-12-28T15:44:04;10.60;99.90
18753;DHT22;9505;50.882;5.350;2022-12-28T15:46:30;10.60;99.90
18753;DHT22;9505;50.882;5.350;2022-12-28T15:48:57;10.60;99.90
18753;DHT22;9505;50.882;5.350;2022-12-28T15:51:22;10.60;99.90
18753;DHT22;9505;50.882;5.350;2022-12-28T15:53:48;10.60;99.90
18753;DHT22;9505;50.882;5.350;2022-12-28T15:56:25;10.60;99.90
18753;DHT22;9505;50.882;5.350;2022-12-28T15:58:55;10.50;99.90
18753;DHT22;9505;50.882;5.350;2022-12-28T16:01:22;10.50;99.90
18753;DHT22;9505;50.882;5.350;2022-12-28T16:03:49;10.40;99.90
18753;DHT22;9505;50.882;5.350;2022-12-28T16:06:15;10.40;99.90
18753;DHT22;9505;50.882;5.350;2022-12-28T16:08:41;10.30;99.90
18753;DHT22;9505;50.882;5.350;2022-12-28T16:11:11;10.30;99.90
18753;DHT22;9505;50.882;5.350;2022-12-28T16:13:38;10.30;99.90
18753;DHT22;9505;50.882;5.350;2022-12-28T16:16:08;10.30;99.90
18753;DHT22;9505;50.882;5.350;2022-12-28T16:18:34;10.30;99.90
18753;DHT22;9505;50.882;5.350;2022-12-28T16:21:01;10.30;99.90
18753;DHT22;9505;50.882;5.350;2022-12-28T16:23:38;10.30;99.90
18753;DHT22;9505;50.882;5.350;2022-12-28T16:26:05;10.30;99.90
18753;DHT22;9505;50.882;5.350;2022-12-28T16:28:31;10.40;99.90
18753;DHT22;9505;50.882;5.350;2022-12-28T16:30:57;10.40;99.90
18753;DHT22;9505;50.882;5.350;2022-12-28T16:33:23;10.40;99.90
18753;DHT22;9505;50.882;5.350;2022-12-28T16:35:49;10.50;99.90
18753;DHT22;9505;50.882;5.350;2022-12-28T16:38:15;10.40;99.90
18753;DHT22;9505;50.882;5.350;2022-12-28T16:40:42;10.40;99.90
18753;DHT22;9505;50.882;5.350;2022-12-28T16:43:07;10.40;99.90
18753;DHT22;9505;50.882;5.350;2022-12-28T16:45:38;10.40;99.90
18753;DHT22;9505;50.882;5.350;2022-12-28T16:48:05;10.40;99.90
18753;DHT22;9505;50.882;5.350;2022-12-28T16:50:32;10.40;99.90
18753;DHT22;9505;50.882;5.350;2022-12-28T16:52:57;10.40;99.90
18753;DHT22;9505;50.882;5.350;2022-12-28T16:55:27;10.40;99.90
18753;DHT22;9505;50.882;5.350;2022-12-28T16:57:53;10.30;99.90
18753;DHT22;9505;50.882;5.350;2022-12-28T17:00:18;10.30;99.90
18753;DHT22;9505;50.882;5.350;2022-12-28T17:02:44;10.30;99.90
18753;DHT22;9505;50.882;5.350;2022-12-28T17:05:10;10.20;99.90
18753;DHT22;9505;50.882;5.350;2022-12-28T17:07:35;10.10;99.90
18753;DHT22;9505;50.882;5.350;2022-12-28T17:10:01;10.00;99.90
18753;DHT22;9505;50.882;5.350;2022-12-28T17:12:26;10.00;99.90
18753;DHT22;9505;50.882;5.350;2022-12-28T17:14:52;9.90;99.90
18753;DHT22;9505;50.882;5.350;2022-12-28T17:17:18;9.90;99.90
18753;DHT22;9505;50.882;5.350;2022-12-28T17:19:43;9.80;99.90
18753;DHT22;9505;50.882;5.350;2022-12-28T17:22:09;9.80;99.90
18753;DHT22;9505;50.882;5.350;2022-12-28T17:24:35;9.70;99.90
18753;DHT22;9505;50.882;5.350;2022-12-28T17:27:01;9.70;99.90